Frey Ranch - Fallon, Nevada Weather observations

Data are for observation ending at time listed.
 Day   Time    Ave.   Ave.  Ave.  Vector   Max.   Stn.    Total    Solar   Ave.  
  of    of     Air    Rel.  Wind   Wind    Wind   Baro.  Precip.   Rad.    Soil  
Year   Day     Temp.  Hum.  Speed  Dir.    Gust   Pres.                    Temp. 
2015   (PST)    F      %     mph   deg.    mph     mb.     in.     W/m2     F   
------------------------------------------------------------------------------
 209    1:50   50.3    37    1.2   276      2.7   999.0    0.00       0    82.1
 209    2:00   50.1    36    1.6   264      5.4   999.0    0.00       0    82.0
 209    2:10   51.5    34    1.8   280      3.3   999.0    0.00       0    82.0
 209    2:20   51.2    34    1.6   251      3.8   999.0    0.00       0    81.9
 209    2:30   51.0    34    1.5   253      2.5   999.0    0.00       0    81.8
 209    2:40   50.5    35    0.4   252      2.8   999.0    0.00       0    81.8
 209    2:50   50.5    35    1.7   256      4.1   999.0    0.00       0    81.7
 209    3:00   50.6    35    1.6   261      2.4   999.0    0.00       0    81.6
 209    3:10   49.8    38    2.4   275      3.7   999.0    0.00       0    81.6
 209    3:20   50.3    37    3.1   290      4.1   999.0    0.00       0    81.5
 209    3:30   50.3    37    3.4   296      4.5   999.0    0.00       0    81.4
 209    3:40   50.7    38    3.4   291      4.9   999.0    0.00       1    81.4
 209    3:50   50.2    38    3.6   288      4.6   999.0    0.00       4    81.3
 209    4:00   50.2    37    3.5   293      4.8   999.0    0.00       8    81.2
 209    4:10   51.4    36    3.1   289      4.3   999.0    0.00      15    81.1
 209    4:20   51.4    36    2.9   284      4.0   999.0    0.00      32    81.1
 209    4:30   52.2    36    2.8   285      3.6   999.0    0.00      58    81.0
 209    4:40   53.2    37    2.7   287      4.1   999.0    0.00      92    80.9
 209    4:50   55.4    36    2.0   287      3.1   999.0    0.00     130    80.9
 209    5:00   57.4    34    1.7   280      2.7   999.0    0.00     163    80.8
 209    5:10   58.0    32    2.0   280      2.9   999.0    0.00     198    80.7
 209    5:20   60.3    30    1.8   280      2.8   999.0    0.00     233    80.6
 209    5:30   62.0    28    2.4   283      4.3   999.0    0.00     267    80.6
 209    5:40   62.6    25    3.2   273      4.9   999.0    0.00     302    80.5
 209    5:50   63.1    25    3.1   306      5.3   999.0    0.00     337    80.4
 209    6:00   63.4    25    2.6   321      4.9   999.0    0.00     373    80.3
 209    6:10   65.1    22    1.4   354      3.7   999.0    0.00     411    80.3
 209    6:20   66.2    20    1.8    41      4.0   999.0    0.00     447    80.2
 209    6:30   65.9    21    2.0   343      4.1   999.0    0.00     482    80.1
 209    6:40   67.0    20    2.0    25      5.0   999.0    0.00     519    80.0
 209    6:50   67.4    19    1.8   346      4.0   999.0    0.00     553    80.0
 209    7:00   68.1    20    2.2   346      4.7   999.0    0.00     586    79.9
 209    7:10   67.9    19    2.6    45      5.1   999.0    0.00     619    79.8
 209    7:20   69.1    19    2.3   356      5.7   999.0    0.00     652    79.8
 209    7:30   69.2    18    3.6    75      7.2   999.0    0.00     684    79.7
 209    7:40   69.7    17    2.4    88      5.6   999.0    0.00     715    79.6
 209    7:50   70.6    16    2.9    77      5.8   999.0    0.00     744    79.6
 209    8:00   71.4    16    2.4    80      6.5   999.0    0.00     723    79.5
 209    8:10   72.0    16    2.2    60      5.9   999.0    0.00     797    79.4
 209    8:20   73.7    15    1.5    35      5.0   999.0    0.00     823    79.4
 209    8:30   74.5    15    2.1   291      5.0   999.0    0.00     846    79.3
 209    8:40   74.7    15    2.8    94      8.1   999.0    0.00     870    79.3
 209    8:50   74.8    14    4.1    47      8.0   999.0    0.00     895    79.2
 209    9:00   75.1    13    2.4    98      6.7   999.0    0.00     917    79.2
 209    9:10   76.4    13    3.6   106      8.1   999.0    0.00     935    79.2
 209    9:20   77.0    13    3.0    71      7.8   999.0    0.00     952    79.1
 209    9:30   78.0    13    3.0    29      7.4   999.0    0.00     967    79.1
 209    9:40   78.0    13    3.8    42      7.6   999.0    0.00     983    79.1
 209    9:50   78.2    13    2.8   342      8.0   999.0    0.00     996    79.1
 209   10:00   78.8    12    3.7     8      7.4   999.0    0.00    1007    79.0
 209   10:10   79.3    12    2.8    18      7.6   999.0    0.00    1018    79.0
 209   10:20   80.1    12    2.7   357      7.1   999.0    0.00    1024    79.0
 209   10:30   80.4    12    2.7   357      7.0   999.0    0.00    1031    79.0
 209   10:40   80.5    11    3.1    69      8.4   999.0    0.00    1039    79.0
 209   10:50   81.7    12    1.8   288      6.0   999.0    0.00    1041    79.0
 209   11:00   81.9    12    3.4   346      8.0   999.0    0.00    1042    79.0
 209   11:10   82.5    11    3.1    12      7.2   999.0    0.00    1044    79.1
 209   11:20   81.6    11    3.3   102      9.6   999.0    0.00    1044    79.1
 209   11:30   83.0    11    2.8   356      6.7   999.0    0.00    1041    79.1
 209   11:40   82.8    11    3.8   144      6.0   999.0    0.00    1036    79.1
 209   11:50   82.7    11    6.0    86     10.4   999.0    0.00    1030    79.2
 209   12:00   83.1    11    2.2   123      6.4   999.0    0.00    1023    79.2
 209   12:10   84.6    10    2.0    93      6.2   999.0    0.00    1012    79.2
 209   12:20   85.9    10    3.6    43      8.0   999.0    0.00    1001    79.3
 209   12:30   85.2    11    3.1   136      8.2   999.0    0.00     988    79.4
 209   12:40   85.9    10    2.8    29      8.6   999.0    0.00     974    79.4
 209   12:50   85.2    11    3.4   124      8.1   999.0    0.00     957    79.5
 209   13:00   85.3    10    4.3    79     10.2   999.0    0.00     938    79.5
 209   13:10   85.9    10    2.5    55      8.5   999.0    0.00     918    79.6
 209   13:20   85.9    10    3.1    77      7.6   999.0    0.00     897    79.7
 209   13:30   87.1    10    2.6   318      5.4   999.0    0.00     877    79.8
 209   13:40   87.2    10    2.0   269      5.2   999.0    0.00     853    79.8
 209   13:50   86.8    11    3.7   246      8.5   999.0    0.00     826    79.9
 209   14:00   87.0    10    3.9    42     10.5   999.0    0.00     801    80.0
 209   14:10   86.7    11    3.8    10     10.9   999.0    0.00     772    80.1
 209   14:20   86.6    11    4.6   325      9.0   999.0    0.00     745    80.2
 209   14:30   87.1    11    3.1   336      7.0   999.0    0.00     714    80.2
 209   14:40   86.6    11    3.3     8      8.3   999.0    0.00     684    80.3
 209   14:50   86.9    11    3.7   335      8.6   999.0    0.00     654    80.4
 209   15:00   87.5    10    2.8   360      6.3   999.0    0.00     622    80.5
 209   15:10   87.7    10    2.4   358      6.4   999.0    0.00     589    80.6
 209   15:20   88.5    10    2.1    24      7.5   999.0    0.00     553    80.7
 209   15:30   86.9    10    3.9    26      7.3   999.0    0.00     519    80.8
 209   15:40   87.0    10    2.6   353      6.8   999.0    0.00     487    80.9
 209   15:50   88.5    10    1.9     1      6.1   999.0    0.00     451    81.0
 209   16:00   88.3    10    2.7   344      6.0   999.0    0.00     416    81.1
 209   16:10   87.3    10    2.6    19      7.1   999.0    0.00     381    81.2
 209   16:20   86.5     9    3.2    60      8.2   999.0    0.00     347    81.3
 209   16:30   87.3    10    2.4     5      6.2   999.0    0.00     312    81.4
 209   16:40   86.8    10    2.8   350      9.2   999.0    0.00     275    81.5
 209   16:50   86.3    10    2.7   358      7.9   999.0    0.00     221    81.6
 209   17:00   86.3    11    1.8   354      5.0   999.0    0.00     207    81.7
 209   17:10   85.6    11    1.5   353      4.6   999.0    0.00     176    81.8
 209   17:20   85.3    12    1.2     1      3.8   999.0    0.00     144    81.9
 209   17:30   83.9    13    1.5   356      3.6   999.0    0.00     114    82.0
 209   17:40   83.4    14    0.5     1      2.2   999.0    0.00      77    82.1
 209   17:50   81.5    16    0.3   352      1.5   999.0    0.00      44    82.1
 209   18:00   78.4    17    0.3   353      1.3   999.0    0.00      14    82.2
 209   18:10   76.0    18    0.4   353      2.3   999.0    0.00       6    82.3
 209   18:20   74.7    18    0.9   352      2.2   999.0    0.00       3    82.4
 209   18:30   74.0    19    1.2   351      2.0   999.0    0.00       1    82.5
 209   18:40   73.4    19    1.3   351      1.9   999.0    0.00       0    82.5
 209   18:50   72.6    20    0.8   351      2.2   999.0    0.00       0    82.6
 209   19:00   71.7    21    0.0     0      0.0   999.0    0.00       0    82.7
 209   19:10   70.8    22    1.0   350      1.9   999.0    0.00       0    82.7
 209   19:20   70.1    22    1.8   346      2.8   999.0    0.00       0    82.8
 209   19:30   67.9    26    2.0   342      3.0   999.0    0.00       0    82.8
 209   19:40   67.0    25    1.3   351      3.7   999.0    0.00       0    82.8
 209   19:50   67.5    23    0.1   353      2.5   999.0    0.00       0    82.9
 209   20:00   67.7    22    0.6   355      2.4   999.0    0.00       0    82.9
 209   20:10   69.4    19    2.1   358      4.6   999.0    0.00       0    83.0
 209   20:20   69.5    18    2.4   357      5.1   999.0    0.00       0    83.0
 209   20:30   69.6    16    2.8     6      7.2   999.0    0.00       0    83.0
 209   20:40   67.7    18    1.8    29      4.5   999.0    0.00       0    83.0
 209   20:50   65.9    19    1.8    12      4.8   999.0    0.00       0    83.1
 209   21:00   65.9    20    1.1    24      3.7   999.0    0.00       0    83.1
 209   21:10   64.2    22    0.7     9      4.2   999.0    0.00       0    83.1
 209   21:20   63.7    21    1.0   356      2.9   999.0    0.00       0    83.1
 209   21:30   62.4    23    0.6   333      3.6   999.0    0.00       0    83.1
 209   21:40   60.5    26    1.0   334      2.9   999.0    0.00       0    83.1
 209   21:50   58.8    26    1.5   329      2.8   999.0    0.00       0    83.0
 209   22:00   59.1    25    0.8   318      1.8   999.0    0.00       0    83.0
 209   22:10   57.1    26    2.3   283      3.3   999.0    0.00       0    83.0
 209   22:20   56.3    26    1.3   282      2.4   999.0    0.00       0    83.0
 209   22:30   56.2    26    2.7   284      4.3   999.0    0.00       0    83.0
 209   22:40   56.5    26    3.3   288      4.2   999.0    0.00       0    83.0
 209   22:50   57.9    24    3.8   293      5.8   999.0    0.00       0    82.9
 209   23:00   59.0    23    2.7   294      5.1   999.0    0.00       0    82.9
 209   23:10   57.4    23    3.3   186      5.4   999.0    0.00       0    82.9
 209   23:20   56.8    23    0.9   200      3.7   999.0    0.00       0    82.8
 209   23:30   58.8    22    2.7   264      5.6   999.0    0.00       0    82.8
 209   23:40   61.1    20    3.2   307      4.9   999.0    0.00       0    82.8
 209   23:50   61.3    20    1.9   307      2.7   999.0    0.00       0    82.8
 210    0:00   59.2    21    0.7   300      2.2   999.0    0.00       0    82.7
 210    0:10   57.7    23    3.5   297      4.7   999.0    0.00       0    82.7
 210    0:20   57.8    22    3.2   292      4.6   999.0    0.00       0    82.6
 210    0:30   58.5    22    1.4   288      2.5   999.0    0.00       0    82.6
 210    0:40   59.9    18    1.4   292      2.2   999.0    0.00       0    82.5
 210    0:50   59.7    20    1.9   292      2.9   999.0    0.00       0    82.5
 210    1:00   57.4    23    2.8   293      3.9   999.0    0.00       0    82.4
 210    1:10   58.0    22    2.7   293      3.9   999.0    0.00       0    82.4
 210    1:20   58.3    22    2.8   295      4.2   999.0    0.00       0    82.3
 210    1:30   59.1    24    2.2   302      3.8   999.0    0.00       0    82.3
 210    1:40   58.5    23    3.4   311      5.7   999.0    0.00       0    82.2

Return to Frey Ranch - Fallon, Nevada graphs page.


Western Regional Climate Center,wrcc@dri.edu